Time;durP1;ratioP1;P1;durP2;ratioP2;P2;SDS_P1;SDS_P2;PMS_P1;PMS_P2;Temp;Humidity;BMP_temperature;BMP_pressure;BME280_temperature;BME280_humidity;BME280_pressure;Samples;Min_cycle;Max_cycle;Signal;HPM_P1;HPM_P2
2023/05/28 00:00:10;;;;;;;0.00;0.00;;;12.60;81.20;;;;;;5048771;28;20079;-70
2023/05/28 00:02:36;;;;;;;0.10;0.10;;;12.60;81.00;;;;;;5050051;28;20057;-70
2023/05/28 00:05:03;;;;;;;0.47;0.47;;;12.60;80.80;;;;;;5048584;28;20073;-70
2023/05/28 00:07:30;;;;;;;0.00;0.00;;;12.60;80.60;;;;;;5051942;28;20048;-70
2023/05/28 00:09:56;;;;;;;0.00;0.00;;;12.60;80.90;;;;;;5053072;28;20056;-70
2023/05/28 00:12:22;;;;;;;0.00;0.00;;;12.60;81.40;;;;;;5056471;28;20072;-71
2023/05/28 00:14:47;;;;;;;0.38;0.38;;;12.50;81.90;;;;;;5072680;28;20040;-70
2023/05/28 00:17:15;;;;;;;0.00;0.00;;;12.50;81.50;;;;;;5072636;28;20090;-70
2023/05/28 00:19:41;;;;;;;0.55;0.45;;;12.40;81.00;;;;;;5071435;28;20131;-70
2023/05/28 00:22:07;;;;;;;0.00;0.00;;;12.40;81.60;;;;;;5071747;28;20131;-70
2023/05/28 00:24:33;;;;;;;0.00;0.00;;;12.40;81.30;;;;;;5052610;28;20045;-70
2023/05/28 00:26:58;;;;;;;0.00;0.00;;;12.30;81.10;;;;;;5052466;28;20075;-70
2023/05/28 00:29:26;;;;;;;0.82;0.82;;;12.30;81.10;;;;;;5053492;28;20045;-70
2023/05/28 00:31:57;;;;;;;0.00;0.00;;;12.30;81.20;;;;;;5051307;28;20052;-70
2023/05/28 00:34:23;;;;;;;0.00;0.00;;;12.20;81.10;;;;;;5052554;28;20044;-70
2023/05/28 00:36:49;;;;;;;0.00;0.00;;;12.30;81.30;;;;;;5051609;28;20102;-71
2023/05/28 00:39:16;;;;;;;0.00;0.00;;;12.20;81.10;;;;;;5055810;28;20049;-71
2023/05/28 00:41:41;;;;;;;0.00;0.00;;;12.20;81.50;;;;;;5054736;28;20510;-70
2023/05/28 00:44:08;;;;;;;0.30;0.30;;;12.20;81.50;;;;;;5055421;28;20044;-71
2023/05/28 00:46:35;;;;;;;0.10;0.10;;;12.20;81.30;;;;;;5052160;28;20506;-70
2023/05/28 00:49:01;;;;;;;0.08;0.08;;;12.10;81.40;;;;;;5050999;28;20053;-70
2023/05/28 00:51:27;;;;;;;0.00;0.00;;;12.10;81.20;;;;;;5051097;28;20405;-70
2023/05/28 00:53:53;;;;;;;0.00;0.00;;;12.10;81.60;;;;;;5034593;28;20130;-70
2023/05/28 00:56:19;;;;;;;0.00;0.00;;;12.10;81.60;;;;;;5051926;28;20049;-70
2023/05/28 00:58:48;;;;;;;0.20;0.20;;;12.10;81.90;;;;;;5050560;28;20390;-70
2023/05/28 01:01:14;;;;;;;0.00;0.00;;;12.10;82.10;;;;;;5052219;28;20379;-70
2023/05/28 01:03:39;;;;;;;0.00;0.00;;;12.00;82.10;;;;;;5052135;28;20127;-70
2023/05/28 01:06:11;;;;;;;1.42;1.35;;;12.00;82.30;;;;;;5051577;28;20148;-70
2023/05/28 01:08:41;;;;;;;0.10;0.10;;;12.00;82.30;;;;;;5052047;28;20555;-70
2023/05/28 01:11:11;;;;;;;0.38;0.38;;;11.90;82.60;;;;;;5051965;28;20059;-70
2023/05/28 01:13:37;;;;;;;0.10;0.10;;;11.90;82.50;;;;;;5071155;28;20478;-70
2023/05/28 01:16:03;;;;;;;0.40;0.40;;;11.90;82.30;;;;;;5059381;28;20156;-70
2023/05/28 01:18:31;;;;;;;0.00;0.00;;;11.80;82.40;;;;;;5070825;28;20037;-70
2023/05/28 01:21:00;;;;;;;0.00;0.00;;;11.80;82.60;;;;;;5059993;28;20057;-70
2023/05/28 01:23:28;;;;;;;0.00;0.00;;;11.80;82.60;;;;;;5053659;28;20041;-70
2023/05/28 01:25:55;;;;;;;1.17;1.08;;;11.70;82.50;;;;;;5053671;28;20508;-71
2023/05/28 01:28:24;;;;;;;0.00;0.00;;;11.70;82.40;;;;;;5069758;28;20055;-70
2023/05/28 01:30:50;;;;;;;0.30;0.30;;;11.70;82.80;;;;;;5060207;28;20048;-70
2023/05/28 01:33:16;;;;;;;0.00;0.00;;;11.70;82.80;;;;;;5051153;28;20045;-70
2023/05/28 01:35:42;;;;;;;1.45;1.17;;;11.60;83.20;;;;;;5051240;28;20178;-70
2023/05/28 01:38:11;;;;;;;0.00;0.00;;;11.60;83.20;;;;;;5051323;28;20041;-70
2023/05/28 01:40:44;;;;;;;0.00;0.00;;;11.70;83.00;;;;;;5051776;28;20123;-70
2023/05/28 01:43:10;;;;;;;0.60;0.08;;;11.70;82.80;;;;;;5055439;28;20052;-70
2023/05/28 01:45:36;;;;;;;0.00;0.00;;;11.70;83.00;;;;;;5057684;28;20084;-70
2023/05/28 01:48:02;;;;;;;0.25;0.25;;;11.60;82.90;;;;;;5051663;28;20048;-71
2023/05/28 01:50:30;;;;;;;0.10;0.10;;;11.70;82.90;;;;;;5061376;28;20448;-70
2023/05/28 01:52:55;;;;;;;0.00;0.00;;;11.70;82.90;;;;;;5051975;28;20458;-70
2023/05/28 01:55:24;;;;;;;0.10;0.10;;;11.80;82.70;;;;;;5051930;28;20051;-70
2023/05/28 01:57:49;;;;;;;0.00;0.00;;;11.70;82.70;;;;;;5050781;28;20140;-70
2023/05/28 02:00:15;;;;;;;0.00;0.00;;;11.80;82.80;;;;;;5049918;28;20123;-70
2023/05/28 02:02:42;;;;;;;0.00;0.00;;;11.90;83.00;;;;;;5050792;28;20053;-70
2023/05/28 02:05:08;;;;;;;0.10;0.10;;;11.80;83.00;;;;;;5049336;28;20413;-70
2023/05/28 02:07:34;;;;;;;0.15;0.15;;;11.90;83.10;;;;;;5050944;28;20048;-70
2023/05/28 02:09:59;;;;;;;0.00;0.00;;;11.90;83.00;;;;;;5062595;28;20045;-70
2023/05/28 02:12:25;;;;;;;0.00;0.00;;;12.00;82.90;;;;;;5061111;28;20413;-70
2023/05/28 02:14:51;;;;;;;0.75;0.75;;;11.90;82.90;;;;;;5069038;28;20040;-70
2023/05/28 02:17:17;;;;;;;0.00;0.00;;;12.00;83.20;;;;;;5070577;28;20040;-70
2023/05/28 02:19:43;;;;;;;0.00;0.00;;;12.00;83.10;;;;;;5070587;28;20489;-70
2023/05/28 02:22:12;;;;;;;0.10;0.10;;;12.00;83.40;;;;;;5067459;28;20102;-70
2023/05/28 02:24:41;;;;;;;0.10;0.10;;;11.90;83.50;;;;;;5057022;28;20053;-70
2023/05/28 02:27:07;;;;;;;0.00;0.00;;;11.90;83.20;;;;;;5050503;28;20057;-70
2023/05/28 02:29:33;;;;;;;0.00;0.00;;;11.90;83.00;;;;;;5049343;28;20044;-70
2023/05/28 02:32:00;;;;;;;2.80;0.63;;;12.00;82.90;;;;;;5066218;28;20044;-70
2023/05/28 02:34:28;;;;;;;0.10;0.10;;;11.90;83.20;;;;;;5070335;28;20123;-70
2023/05/28 02:36:56;;;;;;;0.30;0.30;;;11.90;83.20;;;;;;5070204;28;20052;-70
2023/05/28 02:39:23;;;;;;;0.00;0.00;;;11.90;83.40;;;;;;5069864;28;20503;-70
2023/05/28 02:41:48;;;;;;;0.05;0.05;;;11.80;83.30;;;;;;5055177;28;20041;-70
2023/05/28 02:44:14;;;;;;;0.00;0.00;;;11.90;83.30;;;;;;5049630;28;20130;-70
2023/05/28 02:46:40;;;;;;;0.00;0.00;;;11.90;83.50;;;;;;5050137;28;20159;-71
2023/05/28 02:49:06;;;;;;;0.00;0.00;;;11.80;83.90;;;;;;5056313;28;20045;-70
2023/05/28 02:51:32;;;;;;;0.00;0.00;;;11.90;83.80;;;;;;5068604;28;20472;-70
2023/05/28 02:53:57;;;;;;;0.00;0.00;;;11.80;83.70;;;;;;5067071;28;20619;-70
2023/05/28 02:56:23;;;;;;;0.00;0.00;;;11.80;84.00;;;;;;5060251;28;20037;-70
2023/05/28 02:58:48;;;;;;;0.25;0.25;;;11.80;83.80;;;;;;5064814;28;20032;-70
2023/05/28 03:01:14;;;;;;;0.00;0.00;;;11.80;83.80;;;;;;5065446;28;20378;-70
2023/05/28 03:03:40;;;;;;;2.42;0.80;;;11.80;83.80;;;;;;5067010;28;20040;-70
2023/05/28 03:06:07;;;;;;;0.10;0.10;;;11.80;83.70;;;;;;5068366;28;20045;-70
2023/05/28 03:08:32;;;;;;;0.70;0.70;;;11.70;83.90;;;;;;5038670;28;20055;-70
2023/05/28 03:10:58;;;;;;;0.38;0.38;;;11.70;84.10;;;;;;5054789;28;20041;-70
2023/05/28 03:13:23;;;;;;;0.00;0.00;;;11.70;84.10;;;;;;5067058;28;20490;-70
2023/05/28 03:15:49;;;;;;;0.00;0.00;;;11.70;84.10;;;;;;5069903;28;20097;-70
2023/05/28 03:18:15;;;;;;;0.00;0.00;;;11.70;84.00;;;;;;5066278;28;20037;-70
2023/05/28 03:20:41;;;;;;;0.00;0.00;;;11.70;84.00;;;;;;5069356;28;20166;-70
2023/05/28 03:23:06;;;;;;;0.10;0.10;;;11.70;84.50;;;;;;5033630;28;20048;-70
2023/05/28 03:25:32;;;;;;;1.55;1.45;;;11.70;84.50;;;;;;5049624;28;20106;-70
2023/05/28 03:27:57;;;;;;;0.00;0.00;;;11.60;84.60;;;;;;5049340;28;20120;-70
2023/05/28 03:30:23;;;;;;;0.00;0.00;;;11.60;84.60;;;;;;5048278;28;20053;-70
2023/05/28 03:32:50;;;;;;;0.00;0.00;;;11.60;84.40;;;;;;5030968;28;20486;-70
2023/05/28 03:35:16;;;;;;;0.25;0.25;;;11.70;84.40;;;;;;5049065;28;20053;-69
2023/05/28 03:37:41;;;;;;;0.47;0.38;;;11.70;84.50;;;;;;5030383;28;20454;-70
2023/05/28 03:40:08;;;;;;;0.20;0.20;;;11.70;84.40;;;;;;5049058;28;20139;-70
2023/05/28 03:42:34;;;;;;;0.00;0.00;;;11.70;84.40;;;;;;5047261;28;20414;-70
2023/05/28 03:45:00;;;;;;;0.60;0.57;;;11.70;84.50;;;;;;5048860;28;20060;-70
2023/05/28 03:47:27;;;;;;;0.00;0.00;;;11.70;84.60;;;;;;5049277;28;20044;-70
2023/05/28 03:49:52;;;;;;;0.20;0.20;;;11.70;84.40;;;;;;5045843;28;20101;-70
2023/05/28 03:52:19;;;;;;;0.00;0.00;;;11.70;84.40;;;;;;5057415;28;20055;-70
2023/05/28 03:54:45;;;;;;;0.00;0.00;;;11.70;84.40;;;;;;5031071;28;20041;-70
2023/05/28 03:57:11;;;;;;;0.00;0.00;;;11.70;84.50;;;;;;5047469;28;20051;-70
2023/05/28 03:59:36;;;;;;;0.00;0.00;;;11.70;84.30;;;;;;5060891;28;20377;-70
2023/05/28 04:02:02;;;;;;;0.00;0.00;;;11.60;84.40;;;;;;5064543;28;20101;-70
2023/05/28 04:04:28;;;;;;;0.00;0.00;;;11.60;84.50;;;;;;5069094;28;20047;-70
2023/05/28 04:06:53;;;;;;;0.03;0.03;;;11.70;84.60;;;;;;5068348;28;20547;-70
2023/05/28 04:09:19;;;;;;;0.55;0.55;;;11.70;84.70;;;;;;5068083;28;20055;-70
2023/05/28 04:11:45;;;;;;;0.10;0.10;;;11.70;84.70;;;;;;5068437;28;20063;-70
2023/05/28 04:14:11;;;;;;;0.40;0.40;;;11.70;84.50;;;;;;5068745;28;20098;-70
2023/05/28 04:16:36;;;;;;;0.00;0.00;;;11.70;84.40;;;;;;5049263;28;20090;-70
2023/05/28 04:19:02;;;;;;;0.00;0.00;;;11.70;84.40;;;;;;5068052;28;20040;-70
2023/05/28 04:21:30;;;;;;;0.00;0.00;;;11.80;84.40;;;;;;5048731;28;20467;-70
2023/05/28 04:23:56;;;;;;;0.00;0.00;;;11.80;84.30;;;;;;5048055;28;20045;-69
2023/05/28 04:26:22;;;;;;;0.00;0.00;;;11.80;84.40;;;;;;5048684;28;20044;-70
2023/05/28 04:28:48;;;;;;;0.00;0.00;;;11.80;84.40;;;;;;5052404;28;20127;-70
2023/05/28 04:31:14;;;;;;;0.08;0.08;;;11.90;84.50;;;;;;5048410;28;20517;-70
2023/05/28 04:33:39;;;;;;;0.10;0.10;;;11.90;84.40;;;;;;5048112;28;20037;-70
2023/05/28 04:36:08;;;;;;;0.10;0.10;;;11.90;84.40;;;;;;5047623;28;20049;-70
2023/05/28 04:38:34;;;;;;;0.03;0.03;;;12.00;84.20;;;;;;5052006;28;20056;-70
2023/05/28 04:41:04;;;;;;;0.00;0.00;;;12.00;84.10;;;;;;5067234;28;20052;-70
2023/05/28 04:43:31;;;;;;;2.75;0.68;;;12.00;84.10;;;;;;5050006;28;20059;-70
2023/05/28 04:45:58;;;;;;;2.78;0.57;;;12.00;84.20;;;;;;5047090;28;20520;-70
2023/05/28 04:48:25;;;;;;;0.00;0.00;;;12.10;84.20;;;;;;5048159;28;20128;-70
2023/05/28 04:50:51;;;;;;;0.00;0.00;;;12.10;84.10;;;;;;5068205;28;20057;-70
2023/05/28 04:53:17;;;;;;;0.03;0.03;;;12.10;84.00;;;;;;5068403;28;20051;-70
2023/05/28 04:55:44;;;;;;;0.00;0.00;;;12.10;84.20;;;;;;5071947;28;20558;-70
2023/05/28 04:58:09;;;;;;;0.10;0.10;;;12.10;84.00;;;;;;5054188;28;20048;-70
2023/05/28 05:00:35;;;;;;;0.15;0.15;;;12.20;83.90;;;;;;5071946;28;20519;-70
2023/05/28 05:03:01;;;;;;;0.00;0.00;;;12.10;83.80;;;;;;5071863;28;20048;-69
2023/05/28 05:05:27;;;;;;;0.10;0.10;;;12.10;83.80;;;;;;5070715;28;20054;-70
2023/05/28 05:07:53;;;;;;;0.00;0.00;;;12.10;83.70;;;;;;5071353;28;20413;-70
2023/05/28 05:10:19;;;;;;;0.00;0.00;;;12.10;83.70;;;;;;5068097;28;20142;-70
2023/05/28 05:12:44;;;;;;;0.00;0.00;;;12.10;83.60;;;;;;5056835;28;20045;-69
2023/05/28 05:15:10;;;;;;;1.00;0.90;;;12.10;83.40;;;;;;5053748;28;20126;-71
2023/05/28 05:17:36;;;;;;;0.00;0.00;;;12.10;83.50;;;;;;5065843;28;20045;-73
2023/05/28 05:20:06;;;;;;;0.10;0.10;;;12.10;83.30;;;;;;5062028;28;20044;-68
2023/05/28 05:22:32;;;;;;;0.08;0.08;;;12.10;83.30;;;;;;5064913;28;20397;-71
2023/05/28 05:24:57;;;;;;;0.00;0.00;;;12.10;83.20;;;;;;5051649;28;20032;-70
2023/05/28 05:27:23;;;;;;;1.88;1.45;;;12.10;83.30;;;;;;5059326;28;20049;-70
2023/05/28 05:29:48;;;;;;;0.00;0.00;;;12.20;83.20;;;;;;5063457;28;20114;-71
2023/05/28 05:32:14;;;;;;;0.00;0.00;;;12.30;83.20;;;;;;5051550;28;20048;-70
2023/05/28 05:34:40;;;;;;;0.10;0.10;;;12.20;83.30;;;;;;5052845;28;20045;-70
2023/05/28 05:37:06;;;;;;;0.00;0.00;;;12.30;83.30;;;;;;5037577;28;20678;-71
2023/05/28 05:39:32;;;;;;;0.00;0.00;;;12.30;83.20;;;;;;5051612;28;20083;-70
2023/05/28 05:41:57;;;;;;;0.63;0.63;;;12.40;83.30;;;;;;5049398;28;20539;-71
2023/05/28 05:44:23;;;;;;;0.00;0.00;;;12.40;83.30;;;;;;5049925;28;20048;-70
2023/05/28 05:46:49;;;;;;;0.20;0.20;;;12.50;83.40;;;;;;5051286;28;20083;-70
2023/05/28 05:49:14;;;;;;;0.00;0.00;;;12.50;83.50;;;;;;5050575;28;20040;-70
2023/05/28 05:51:40;;;;;;;0.00;0.00;;;12.60;83.50;;;;;;5060573;28;20060;-71
2023/05/28 05:54:06;;;;;;;0.43;0.43;;;12.60;83.70;;;;;;5057942;28;20048;-70
2023/05/28 05:56:32;;;;;;;0.00;0.00;;;12.60;83.50;;;;;;5042097;28;20040;-70
2023/05/28 05:58:58;;;;;;;1.08;0.63;;;12.60;83.50;;;;;;5061552;28;20495;-70
2023/05/28 06:01:24;;;;;;;0.20;0.20;;;12.80;83.60;;;;;;5058051;28;20033;-70
2023/05/28 06:03:49;;;;;;;0.03;0.03;;;12.80;83.90;;;;;;5058235;28;20040;-69
2023/05/28 06:06:15;;;;;;;0.10;0.10;;;12.90;83.80;;;;;;5051079;28;20041;-70
2023/05/28 06:08:41;;;;;;;0.00;0.00;;;12.90;83.90;;;;;;5050606;28;20128;-69
2023/05/28 06:11:07;;;;;;;0.00;0.00;;;13.00;83.70;;;;;;5059885;28;20036;-69
2023/05/28 06:13:33;;;;;;;0.15;0.15;;;13.00;83.80;;;;;;5051484;28;20044;-68
2023/05/28 06:15:59;;;;;;;0.00;0.00;;;13.10;84.10;;;;;;5051410;28;20156;-70
2023/05/28 06:18:25;;;;;;;0.10;0.10;;;13.10;84.00;;;;;;5069614;28;20140;-70
2023/05/28 06:20:51;;;;;;;0.00;0.00;;;13.20;84.20;;;;;;5070613;28;20098;-70
2023/05/28 06:23:17;;;;;;;0.00;0.00;;;13.30;84.00;;;;;;5053020;28;20045;-71
2023/05/28 06:25:43;;;;;;;0.00;0.00;;;13.30;83.90;;;;;;5051649;28;20066;-70
2023/05/28 06:28:10;;;;;;;0.00;0.00;;;13.30;84.00;;;;;;5062206;28;20049;-70
2023/05/28 06:30:35;;;;;;;1.80;1.08;;;13.40;84.00;;;;;;5050824;28;20083;-70
2023/05/28 06:33:01;;;;;;;0.00;0.00;;;13.50;83.90;;;;;;5062142;28;20045;-70
2023/05/28 06:35:27;;;;;;;0.00;0.00;;;13.50;83.80;;;;;;5063669;28;20041;-70
2023/05/28 06:37:52;;;;;;;0.35;0.35;;;13.50;83.80;;;;;;5053838;28;20056;-70
2023/05/28 06:40:18;;;;;;;0.00;0.00;;;13.60;83.60;;;;;;5069879;28;20036;-69
2023/05/28 06:42:44;;;;;;;0.08;0.08;;;13.70;83.40;;;;;;5064308;28;20095;-70
2023/05/28 06:45:10;;;;;;;0.00;0.00;;;13.70;83.60;;;;;;5043580;28;20052;-72
2023/05/28 06:47:36;;;;;;;0.08;0.08;;;13.80;83.50;;;;;;5057606;28;20056;-70
2023/05/28 06:50:03;;;;;;;0.00;0.00;;;13.80;83.20;;;;;;5039670;28;20552;-70
2023/05/28 06:52:28;;;;;;;2.45;0.88;;;13.90;82.30;;;;;;5056364;28;20490;-70
2023/05/28 06:54:54;;;;;;;0.00;0.00;;;13.90;81.80;;;;;;5067378;28;20155;-69
2023/05/28 06:57:20;;;;;;;0.00;0.00;;;13.90;81.70;;;;;;5065742;28;20133;-70
2023/05/28 06:59:46;;;;;;;2.42;1.02;;;14.10;81.50;;;;;;5061274;28;20040;-70
2023/05/28 07:02:12;;;;;;;0.00;0.00;;;14.10;81.20;;;;;;5060085;28;20060;-69
2023/05/28 07:04:37;;;;;;;0.00;0.00;;;14.10;81.10;;;;;;5058163;28;20484;-70
2023/05/28 07:07:04;;;;;;;0.00;0.00;;;14.10;81.20;;;;;;5055490;28;20529;-69
2023/05/28 07:09:30;;;;;;;0.00;0.00;;;14.20;80.90;;;;;;5065261;28;20048;-70
2023/05/28 07:11:56;;;;;;;0.00;0.00;;;14.20;80.00;;;;;;5060719;28;20460;-70
2023/05/28 07:14:22;;;;;;;0.15;0.15;;;14.20;78.80;;;;;;5054889;28;20103;-70
2023/05/28 07:16:47;;;;;;;0.00;0.00;;;14.30;78.00;;;;;;5048507;28;20048;-70
2023/05/28 07:19:13;;;;;;;0.00;0.00;;;14.40;77.50;;;;;;5048138;28;20045;-70
2023/05/28 07:21:38;;;;;;;0.10;0.10;;;14.40;77.00;;;;;;5054655;28;20049;-69
2023/05/28 07:24:05;;;;;;;0.00;0.00;;;14.50;76.30;;;;;;5054913;28;20136;-70
2023/05/28 07:26:31;;;;;;;1.17;1.00;;;14.60;75.70;;;;;;5048213;28;20156;-69
2023/05/28 07:28:57;;;;;;;0.00;0.00;;;14.60;75.10;;;;;;5051821;28;20092;-70
2023/05/28 07:31:23;;;;;;;0.00;0.00;;;14.60;74.80;;;;;;5047706;28;20052;-69
2023/05/28 07:33:49;;;;;;;0.00;0.00;;;14.70;74.50;;;;;;5048897;28;20077;-70
2023/05/28 07:36:15;;;;;;;0.00;0.00;;;14.80;72.70;;;;;;5064454;28;20548;-70
2023/05/28 07:38:42;;;;;;;0.10;0.10;;;14.80;73.30;;;;;;5049447;28;20076;-69
2023/05/28 07:41:08;;;;;;;0.45;0.32;;;14.80;72.70;;;;;;5053584;28;20079;-69
2023/05/28 07:43:34;;;;;;;0.00;0.00;;;14.80;72.80;;;;;;5060601;28;20084;-69
2023/05/28 07:45:59;;;;;;;0.15;0.15;;;14.90;73.10;;;;;;5067162;28;20044;-70
2023/05/28 07:48:25;;;;;;;0.00;0.00;;;15.00;72.60;;;;;;5066455;28;20048;-71
2023/05/28 07:50:51;;;;;;;0.00;0.00;;;15.10;72.30;;;;;;5055634;28;20060;-70
2023/05/28 07:53:17;;;;;;;0.43;0.43;;;15.10;71.10;;;;;;5050047;28;20056;-70
2023/05/28 07:55:43;;;;;;;0.00;0.00;;;15.10;70.30;;;;;;5060147;28;20037;-70
2023/05/28 07:58:11;;;;;;;0.00;0.00;;;15.20;70.90;;;;;;5049374;28;20110;-70
2023/05/28 08:00:37;;;;;;;0.20;0.20;;;15.20;71.20;;;;;;5053483;28;20053;-70
2023/05/28 08:03:03;;;;;;;0.00;0.00;;;15.30;70.60;;;;;;5058204;28;20147;-70
2023/05/28 08:05:29;;;;;;;0.10;0.10;;;15.40;69.30;;;;;;5056462;28;20127;-70
2023/05/28 08:07:54;;;;;;;0.00;0.00;;;15.40;66.80;;;;;;5067024;28;20047;-70
2023/05/28 08:10:20;;;;;;;0.00;0.00;;;15.40;68.10;;;;;;5066749;28;20845;-70
2023/05/28 08:12:46;;;;;;;0.00;0.00;;;15.40;65.70;;;;;;5055596;28;20059;-70
2023/05/28 08:15:11;;;;;;;0.30;0.30;;;15.50;67.00;;;;;;5060352;28;20052;-70
2023/05/28 08:17:37;;;;;;;0.28;0.28;;;15.60;66.00;;;;;;5059569;28;20045;-70
2023/05/28 08:20:03;;;;;;;0.00;0.00;;;15.60;64.70;;;;;;5046557;28;20056;-70
2023/05/28 08:22:29;;;;;;;0.00;0.00;;;15.60;64.90;;;;;;5048235;28;20053;-70
2023/05/28 08:24:54;;;;;;;1.27;1.17;;;15.70;64.40;;;;;;5048626;28;20060;-70
2023/05/28 08:27:20;;;;;;;0.68;0.30;;;15.80;62.60;;;;;;5060509;28;20105;-68
2023/05/28 08:29:46;;;;;;;0.00;0.00;;;15.80;63.30;;;;;;5068308;28;20516;-68
2023/05/28 08:32:12;;;;;;;0.00;0.00;;;15.90;62.80;;;;;;5060133;28;20504;-67
2023/05/28 08:34:38;;;;;;;0.35;0.35;;;15.90;63.20;;;;;;5054189;28;20044;-67
2023/05/28 08:37:04;;;;;;;2.08;1.08;;;15.90;61.80;;;;;;5070755;28;20049;-68
2023/05/28 08:39:31;;;;;;;0.30;0.30;;;16.00;62.50;;;;;;5072642;28;20146;-67
2023/05/28 08:41:56;;;;;;;0.30;0.30;;;16.10;61.70;;;;;;5058106;28;20058;-68
2023/05/28 08:44:22;;;;;;;0.00;0.00;;;16.10;61.30;;;;;;5050919;28;20371;-68
2023/05/28 08:46:49;;;;;;;0.10;0.10;;;16.10;60.30;;;;;;5053550;28;20041;-68
2023/05/28 08:49:18;;;;;;;0.08;0.08;;;16.20;60.40;;;;;;5052137;28;20085;-68
2023/05/28 08:51:43;;;;;;;0.10;0.10;;;16.10;61.10;;;;;;5052194;28;20082;-68
2023/05/28 08:54:09;;;;;;;0.00;0.00;;;16.20;60.90;;;;;;5038467;28;20123;-68
2023/05/28 08:56:35;;;;;;;0.47;0.45;;;16.30;60.60;;;;;;5064719;28;20146;-68
2023/05/28 08:59:03;;;;;;;0.00;0.00;;;16.30;59.00;;;;;;5044462;28;20196;-68
2023/05/28 09:01:29;;;;;;;0.03;0.03;;;16.50;60.80;;;;;;5070931;28;20052;-69
2023/05/28 09:03:54;;;;;;;0.00;0.00;;;16.60;60.10;;;;;;5065009;28;20352;-69
2023/05/28 09:06:22;;;;;;;0.10;0.10;;;16.50;59.80;;;;;;5053143;28;20600;-68
2023/05/28 09:08:48;;;;;;;0.10;0.10;;;16.60;59.90;;;;;;5071525;28;20056;-69
2023/05/28 09:11:14;;;;;;;3.50;0.47;;;16.60;60.70;;;;;;5071741;28;20044;-68
2023/05/28 09:13:43;;;;;;;0.10;0.10;;;16.60;60.30;;;;;;5071405;28;20129;-69
2023/05/28 09:16:09;;;;;;;1.02;0.70;;;16.70;60.00;;;;;;5064582;28;20041;-69
2023/05/28 09:18:35;;;;;;;0.00;0.00;;;16.80;60.70;;;;;;5052050;28;20143;-68
2023/05/28 09:21:06;;;;;;;0.10;0.10;;;16.90;60.30;;;;;;5051221;28;20053;-69
2023/05/28 09:23:32;;;;;;;1.00;0.63;;;16.90;59.50;;;;;;5057771;28;20071;-69
2023/05/28 09:26:00;;;;;;;0.00;0.00;;;16.90;59.40;;;;;;5071711;28;20049;-69
2023/05/28 09:28:27;;;;;;;0.00;0.00;;;17.00;59.90;;;;;;5067653;28;20041;-68
2023/05/28 09:31:01;;;;;;;0.22;0.22;;;17.10;59.50;;;;;;5066710;28;20145;-69
2023/05/28 09:33:27;;;;;;;0.00;0.00;;;17.10;58.90;;;;;;5054401;28;20076;-69
2023/05/28 09:36:03;;;;;;;0.00;0.00;;;17.20;59.30;;;;;;5070764;28;20527;-69
2023/05/28 09:38:42;;;;;;;0.00;0.00;;;17.30;58.10;;;;;;5061681;28;20413;-69
2023/05/28 09:41:22;;;;;;;0.00;0.00;;;17.30;58.60;;;;;;5045497;28;21444;-69
2023/05/28 09:43:58;;;;;;;0.57;0.57;;;17.40;58.50;;;;;;5054379;28;20514;-68
2023/05/28 09:46:34;;;;;;;1.10;1.00;;;17.40;57.10;;;;;;5069452;28;20083;-67
2023/05/28 09:49:01;;;;;;;0.35;0.35;;;17.50;58.20;;;;;;5053413;28;20429;-68
2023/05/28 09:51:29;;;;;;;0.00;0.00;;;17.60;58.30;;;;;;5050620;28;20140;-67
2023/05/28 09:54:01;;;;;;;0.10;0.10;;;17.70;57.80;;;;;;5066507;28;20051;-67
2023/05/28 09:56:29;;;;;;;0.00;0.00;;;17.70;57.10;;;;;;5068258;28;20045;-68
2023/05/28 09:58:58;;;;;;;0.00;0.00;;;17.80;55.40;;;;;;5058151;28;20047;-67
2023/05/28 10:01:26;;;;;;;0.57;0.57;;;17.80;54.80;;;;;;5049130;28;20112;-67
2023/05/28 10:04:01;;;;;;;0.10;0.10;;;17.90;55.40;;;;;;5048358;28;20051;-68
2023/05/28 10:06:27;;;;;;;0.47;0.47;;;18.00;55.80;;;;;;5060899;28;20041;-67
2023/05/28 10:08:55;;;;;;;0.30;0.30;;;18.00;52.80;;;;;;5057843;28;20043;-68
2023/05/28 10:11:29;;;;;;;13.35;1.08;;;17.90;51.50;;;;;;5048136;28;20536;-68
2023/05/28 10:13:56;;;;;;;0.10;0.10;;;18.00;49.30;;;;;;5050183;28;20090;-68
2023/05/28 10:16:23;;;;;;;0.47;0.45;;;18.00;50.60;;;;;;5061352;28;20056;-68
2023/05/28 10:18:49;;;;;;;0.00;0.00;;;18.10;50.60;;;;;;5065857;28;20072;-68
2023/05/28 10:21:15;;;;;;;0.00;0.00;;;18.10;50.10;;;;;;5068984;28;20052;-67
2023/05/28 10:23:42;;;;;;;0.70;0.70;;;18.10;48.90;;;;;;5057051;28;20036;-67
2023/05/28 10:26:08;;;;;;;0.30;0.30;;;18.10;49.70;;;;;;5056596;28;20511;-67
2023/05/28 10:28:34;;;;;;;2.55;1.02;;;18.20;50.80;;;;;;5048380;28;20072;-67
2023/05/28 10:31:07;;;;;;;0.10;0.10;;;18.20;50.10;;;;;;5050613;28;20479;-67
2023/05/28 10:33:41;;;;;;;0.28;0.28;;;18.30;48.90;;;;;;5033631;28;20080;-68
2023/05/28 10:36:12;;;;;;;0.10;0.10;;;18.40;50.10;;;;;;5055467;28;20102;-68
2023/05/28 10:39:01;;;;;;;0.35;0.35;;;18.50;48.80;;;;;;5057314;28;20037;-68
2023/05/28 10:41:32;;;;;;;0.00;0.00;;;18.50;49.00;;;;;;5051385;28;20036;-68
2023/05/28 10:44:05;;;;;;;0.20;0.20;;;18.60;48.70;;;;;;5067361;28;20047;-67
2023/05/28 10:46:38;;;;;;;3.65;0.90;;;18.60;49.30;;;;;;5064456;28;20056;-68
2023/05/28 10:49:14;;;;;;;1.45;0.80;;;18.60;48.70;;;;;;5049868;28;20055;-68
2023/05/28 10:52:15;;;;;;;3.20;1.20;;;18.60;50.10;;;;;;5060180;28;20652;-67
2023/05/28 10:54:41;;;;;;;0.00;0.00;;;18.70;51.00;;;;;;5069638;28;20356;-68
2023/05/28 10:57:16;;;;;;;0.00;0.00;;;18.90;50.50;;;;;;5062571;28;20049;-67
2023/05/28 11:00:07;;;;;;;0.00;0.00;;;18.90;50.30;;;;;;5049504;28;20045;-67
2023/05/28 11:02:36;;;;;;;0.10;0.10;;;18.90;50.30;;;;;;5057966;28;20051;-68
2023/05/28 11:05:04;;;;;;;0.00;0.00;;;18.90;50.60;;;;;;5058460;28;20048;-67
2023/05/28 11:07:38;;;;;;;0.00;0.00;;;18.90;50.80;;;;;;5060158;28;20049;-66
2023/05/28 11:10:06;;;;;;;1.52;0.73;;;19.00;50.40;;;;;;5053248;28;20068;-67
2023/05/28 11:12:35;;;;;;;0.08;0.08;;;19.00;50.20;;;;;;5059357;28;20439;-66
2023/05/28 11:15:01;;;;;;;0.00;0.00;;;19.00;50.50;;;;;;5049494;28;20567;-66
2023/05/28 11:17:27;;;;;;;0.15;0.15;;;19.10;50.80;;;;;;5051451;28;20490;-66
2023/05/28 11:19:53;;;;;;;0.28;0.28;;;19.10;51.00;;;;;;5054550;28;20048;-66
2023/05/28 11:22:20;;;;;;;0.10;0.10;;;19.20;51.20;;;;;;5059349;28;20043;-66
2023/05/28 11:24:55;;;;;;;0.00;0.00;;;19.30;50.90;;;;;;5054781;28;20570;-66
2023/05/28 11:27:30;;;;;;;0.00;0.00;;;19.40;51.30;;;;;;5055674;28;20041;-67
2023/05/28 11:29:57;;;;;;;0.00;0.00;;;19.40;50.90;;;;;;5052279;28;20048;-66
2023/05/28 11:32:24;;;;;;;0.00;0.00;;;19.40;51.00;;;;;;5064868;28;20062;-66
2023/05/28 11:34:51;;;;;;;0.10;0.10;;;19.40;51.20;;;;;;5068686;28;20060;-67
2023/05/28 11:37:22;;;;;;;0.00;0.00;;;19.40;50.80;;;;;;5053143;28;20045;-67
2023/05/28 11:39:55;;;;;;;0.00;0.00;;;19.40;50.60;;;;;;5063960;28;20055;-67
2023/05/28 11:42:21;;;;;;;0.10;0.10;;;19.40;50.30;;;;;;5062144;28;20237;-67
2023/05/28 11:44:48;;;;;;;0.00;0.00;;;19.50;51.70;;;;;;5059098;28;20067;-67
2023/05/28 11:47:15;;;;;;;0.13;0.10;;;19.50;52.10;;;;;;5068732;28;20150;-67
2023/05/28 11:49:44;;;;;;;0.00;0.00;;;19.50;52.60;;;;;;5068338;28;20376;-67
2023/05/28 11:52:15;;;;;;;0.00;0.00;;;19.50;52.00;;;;;;5067866;28;20052;-67
2023/05/28 11:54:42;;;;;;;0.00;0.00;;;19.50;52.90;;;;;;5067250;28;20488;-67
2023/05/28 11:57:08;;;;;;;0.55;0.55;;;19.40;53.80;;;;;;5068041;28;20067;-67
2023/05/28 11:59:34;;;;;;;0.57;0.43;;;19.40;54.60;;;;;;5060022;28;20059;-67
2023/05/28 12:02:15;;;;;;;0.00;0.00;;;19.50;54.80;;;;;;5066857;28;20044;-67
2023/05/28 12:04:53;;;;;;;0.00;0.00;;;19.40;55.10;;;;;;5058343;28;20041;-66
2023/05/28 12:07:19;;;;;;;2.90;1.55;;;19.50;55.30;;;;;;5047681;28;20090;-66
2023/05/28 12:09:44;;;;;;;3.15;0.55;;;19.50;56.60;;;;;;5064224;28;20088;-67
2023/05/28 12:12:11;;;;;;;0.73;0.73;;;19.60;56.10;;;;;;5047747;28;20052;-66
2023/05/28 12:14:37;;;;;;;0.00;0.00;;;19.70;55.50;;;;;;5065633;28;20559;-67
2023/05/28 12:17:10;;;;;;;0.00;0.00;;;19.70;55.70;;;;;;5066102;28;20049;-67
2023/05/28 12:19:36;;;;;;;0.00;0.00;;;19.70;55.90;;;;;;5065658;28;20053;-67
2023/05/28 12:22:14;;;;;;;0.13;0.13;;;19.60;56.00;;;;;;5050495;28;20489;-66
2023/05/28 12:24:47;;;;;;;0.00;0.00;;;19.60;55.90;;;;;;5047495;28;20052;-67
2023/05/28 12:27:13;;;;;;;0.05;0.05;;;19.60;55.80;;;;;;5053220;28;20574;-66
2023/05/28 12:29:38;;;;;;;4.18;1.33;;;19.50;55.30;;;;;;5062987;28;20049;-67
2023/05/28 12:32:04;;;;;;;0.30;0.30;;;19.60;53.60;;;;;;5029637;28;20360;-67
2023/05/28 12:34:30;;;;;;;1.55;0.98;;;19.50;54.50;;;;;;5051007;28;20052;-67
2023/05/28 12:36:55;;;;;;;0.88;0.88;;;19.60;54.40;;;;;;5056286;28;20041;-67
2023/05/28 12:39:21;;;;;;;0.50;0.35;;;19.60;54.70;;;;;;5047674;28;20057;-67
2023/05/28 12:41:48;;;;;;;0.00;0.00;;;19.60;54.70;;;;;;5047444;28;20063;-66
2023/05/28 12:44:13;;;;;;;0.17;0.17;;;19.60;54.50;;;;;;5049985;28;20049;-66
2023/05/28 12:46:39;;;;;;;0.00;0.00;;;19.50;54.70;;;;;;5064311;28;20037;-66